McKnight, Texas
Current Conditions -  °F | °C
As of 8:55 AM on Thursday 30 Oct 2014 (Local Time) from KRFI Reporting Station
Clear Clear  
Wind Chill: 50°   Ceiling: Unl
Heat Index: 50°   Visibility: 10mi
Dew Point: 49°   Wind: 0mph
Humidity: 95%   Direction: NA
Pressure: 30.18"   Gusts: NA
Location:  32.1449°N, 94.7416°W
Report Text: KRFI 301355Z AUTO 00000KT 10SM CLR 10/09 A3018 RMK AO2 T01020094
Loading
Personal Weather Stations






























Interactive Weather Map
Tropical Storm Tracking
New forecast layout! Learn more

10-Day Weather Forecast

Advertisements
Track Severe Weather on mobile